sensor_id;sensor_type;location;lat;lon;timestamp;pressure;altitude;pressure_sealevel;temperature;humidity
63447;BME280;49577;49.872;6.190;2023-08-24T00:02:09;99662.89;;;18.98;79.58
63447;BME280;49577;49.872;6.190;2023-08-24T00:04:35;99666.81;;;18.98;79.54
63447;BME280;49577;49.872;6.190;2023-08-24T00:07:01;99668.64;;;18.95;79.41
63447;BME280;49577;49.872;6.190;2023-08-24T00:09:27;99665.20;;;18.91;79.52
63447;BME280;49577;49.872;6.190;2023-08-24T00:11:52;99658.44;;;18.90;79.51
63447;BME280;49577;49.872;6.190;2023-08-24T00:14:18;99660.99;;;18.88;79.57
63447;BME280;49577;49.872;6.190;2023-08-24T00:16:43;99665.16;;;18.85;79.73
63447;BME280;49577;49.872;6.190;2023-08-24T00:19:08;99671.02;;;18.83;79.82
63447;BME280;49577;49.872;6.190;2023-08-24T00:21:34;99670.55;;;18.78;79.87
63447;BME280;49577;49.872;6.190;2023-08-24T00:23:59;99669.24;;;18.74;79.94
63447;BME280;49577;49.872;6.190;2023-08-24T00:26:25;99667.27;;;18.70;80.21
63447;BME280;49577;49.872;6.190;2023-08-24T00:28:50;99659.23;;;18.69;80.31
63447;BME280;49577;49.872;6.190;2023-08-24T00:31:15;99656.33;;;18.70;80.56
63447;BME280;49577;49.872;6.190;2023-08-24T00:33:41;99655.55;;;18.71;80.50
63447;BME280;49577;49.872;6.190;2023-08-24T00:36:07;99654.67;;;18.71;80.50
63447;BME280;49577;49.872;6.190;2023-08-24T00:38:32;99654.76;;;18.70;80.53
63447;BME280;49577;49.872;6.190;2023-08-24T00:40:58;99652.58;;;18.69;80.51
63447;BME280;49577;49.872;6.190;2023-08-24T00:43:25;99647.06;;;18.67;80.55
63447;BME280;49577;49.872;6.190;2023-08-24T00:45:51;99637.95;;;18.66;80.66
63447;BME280;49577;49.872;6.190;2023-08-24T00:48:20;99634.63;;;18.65;80.73
63447;BME280;49577;49.872;6.190;2023-08-24T00:50:51;99624.24;;;18.65;80.81
63447;BME280;49577;49.872;6.190;2023-08-24T00:53:17;99610.70;;;18.64;81.02
63447;BME280;49577;49.872;6.190;2023-08-24T00:55:44;99605.64;;;18.65;81.13
63447;BME280;49577;49.872;6.190;2023-08-24T00:58:09;99597.74;;;18.66;81.02
63447;BME280;49577;49.872;6.190;2023-08-24T01:00:35;99597.54;;;18.67;81.03
63447;BME280;49577;49.872;6.190;2023-08-24T01:03:01;99595.14;;;18.66;81.04
63447;BME280;49577;49.872;6.190;2023-08-24T01:05:26;99593.63;;;18.65;81.10
63447;BME280;49577;49.872;6.190;2023-08-24T01:07:51;99589.45;;;18.64;81.11
63447;BME280;49577;49.872;6.190;2023-08-24T01:10:17;99593.52;;;18.64;80.90
63447;BME280;49577;49.872;6.190;2023-08-24T01:13:10;99600.73;;;18.61;80.79
63447;BME280;49577;49.872;6.190;2023-08-24T01:15:43;99600.62;;;18.55;80.78
63447;BME280;49577;49.872;6.190;2023-08-24T01:18:14;99589.98;;;18.48;81.07
63447;BME280;49577;49.872;6.190;2023-08-24T01:20:42;99586.07;;;18.42;81.09
63447;BME280;49577;49.872;6.190;2023-08-24T01:26:05;99581.02;;;18.36;81.36
63447;BME280;49577;49.872;6.190;2023-08-24T01:28:32;99571.60;;;18.33;81.33
63447;BME280;49577;49.872;6.190;2023-08-24T01:30:57;99568.25;;;18.31;81.44
63447;BME280;49577;49.872;6.190;2023-08-24T01:33:24;99567.70;;;18.29;81.64
63447;BME280;49577;49.872;6.190;2023-08-24T01:35:50;99557.21;;;18.28;81.73
63447;BME280;49577;49.872;6.190;2023-08-24T01:38:15;99552.87;;;18.26;81.72
63447;BME280;49577;49.872;6.190;2023-08-24T01:43:25;99541.92;;;18.14;82.19
63447;BME280;49577;49.872;6.190;2023-08-24T01:45:55;99535.48;;;18.13;82.36
63447;BME280;49577;49.872;6.190;2023-08-24T01:48:21;99533.67;;;18.15;82.47
63447;BME280;49577;49.872;6.190;2023-08-24T01:50:47;99530.77;;;18.16;82.34
63447;BME280;49577;49.872;6.190;2023-08-24T01:53:13;99527.85;;;18.15;82.26
63447;BME280;49577;49.872;6.190;2023-08-24T01:55:39;99525.95;;;18.16;82.37
63447;BME280;49577;49.872;6.190;2023-08-24T01:58:04;99518.85;;;18.17;82.28
63447;BME280;49577;49.872;6.190;2023-08-24T02:00:29;99511.27;;;18.15;82.26
63447;BME280;49577;49.872;6.190;2023-08-24T02:02:54;99510.06;;;18.13;82.23
63447;BME280;49577;49.872;6.190;2023-08-24T02:05:20;99510.75;;;18.09;82.22
63447;BME280;49577;49.872;6.190;2023-08-24T02:07:45;99513.23;;;18.06;82.26
63447;BME280;49577;49.872;6.190;2023-08-24T02:10:10;99508.91;;;18.01;82.39
63447;BME280;49577;49.872;6.190;2023-08-24T02:12:36;99507.23;;;18.00;82.54
63447;BME280;49577;49.872;6.190;2023-08-24T02:15:01;99500.83;;;18.01;82.71
63447;BME280;49577;49.872;6.190;2023-08-24T02:17:27;99488.64;;;18.02;82.65
63447;BME280;49577;49.872;6.190;2023-08-24T02:19:53;99492.49;;;18.05;82.70
63447;BME280;49577;49.872;6.190;2023-08-24T02:22:18;99496.41;;;18.06;82.67
63447;BME280;49577;49.872;6.190;2023-08-24T02:24:43;99499.71;;;18.08;82.67
63447;BME280;49577;49.872;6.190;2023-08-24T02:27:09;99505.98;;;18.11;82.53
63447;BME280;49577;49.872;6.190;2023-08-24T02:29:34;99507.21;;;18.13;82.39
63447;BME280;49577;49.872;6.190;2023-08-24T02:31:59;99504.39;;;18.13;82.24
63447;BME280;49577;49.872;6.190;2023-08-24T02:34:25;99504.09;;;18.13;82.25
63447;BME280;49577;49.872;6.190;2023-08-24T02:36:50;99497.66;;;18.13;82.21
63447;BME280;49577;49.872;6.190;2023-08-24T02:39:15;99493.34;;;18.12;82.24
63447;BME280;49577;49.872;6.190;2023-08-24T02:41:41;99489.70;;;18.11;82.19
63447;BME280;49577;49.872;6.190;2023-08-24T02:44:06;99487.95;;;18.11;82.17
63447;BME280;49577;49.872;6.190;2023-08-24T02:46:31;99484.48;;;18.09;82.25
63447;BME280;49577;49.872;6.190;2023-08-24T02:48:57;99477.17;;;18.07;82.25
63447;BME280;49577;49.872;6.190;2023-08-24T02:51:23;99471.73;;;18.07;82.19
63447;BME280;49577;49.872;6.190;2023-08-24T02:53:49;99472.70;;;18.05;82.32
63447;BME280;49577;49.872;6.190;2023-08-24T02:56:15;99477.63;;;18.01;82.19
63447;BME280;49577;49.872;6.190;2023-08-24T02:58:40;99487.68;;;17.98;82.28
63447;BME280;49577;49.872;6.190;2023-08-24T03:01:06;99500.11;;;17.95;82.45
63447;BME280;49577;49.872;6.190;2023-08-24T03:03:33;99505.36;;;17.96;82.59
63447;BME280;49577;49.872;6.190;2023-08-24T03:06:02;99521.85;;;17.95;82.39
63447;BME280;49577;49.872;6.190;2023-08-24T03:08:28;99533.70;;;17.91;82.43
63447;BME280;49577;49.872;6.190;2023-08-24T03:10:54;99543.17;;;17.90;82.58
63447;BME280;49577;49.872;6.190;2023-08-24T03:13:19;99573.70;;;17.92;82.68
63447;BME280;49577;49.872;6.190;2023-08-24T03:15:45;99600.23;;;17.94;82.68
63447;BME280;49577;49.872;6.190;2023-08-24T03:18:14;99604.84;;;17.98;82.76
63447;BME280;49577;49.872;6.190;2023-08-24T03:20:40;99616.73;;;18.01;82.91
63447;BME280;49577;49.872;6.190;2023-08-24T03:23:06;99632.10;;;18.05;83.03
63447;BME280;49577;49.872;6.190;2023-08-24T03:25:35;99645.73;;;18.08;83.24
63447;BME280;49577;49.872;6.190;2023-08-24T03:28:02;99658.14;;;18.11;83.44
63447;BME280;49577;49.872;6.190;2023-08-24T03:30:27;99663.73;;;18.14;83.57
63447;BME280;49577;49.872;6.190;2023-08-24T03:32:52;99667.73;;;18.15;83.28
63447;BME280;49577;49.872;6.190;2023-08-24T03:35:18;99666.76;;;18.16;83.60
63447;BME280;49577;49.872;6.190;2023-08-24T03:37:43;99660.24;;;18.19;83.78
63447;BME280;49577;49.872;6.190;2023-08-24T03:40:09;99657.80;;;18.21;83.20
63447;BME280;49577;49.872;6.190;2023-08-24T03:42:34;99662.48;;;18.20;82.76
63447;BME280;49577;49.872;6.190;2023-08-24T03:44:59;99673.63;;;18.18;82.75
63447;BME280;49577;49.872;6.190;2023-08-24T03:47:25;99676.84;;;18.18;82.63
63447;BME280;49577;49.872;6.190;2023-08-24T03:49:50;99673.84;;;18.19;82.92
63447;BME280;49577;49.872;6.190;2023-08-24T03:52:16;99665.71;;;18.21;83.16
63447;BME280;49577;49.872;6.190;2023-08-24T03:54:41;99657.48;;;18.18;83.16
63447;BME280;49577;49.872;6.190;2023-08-24T03:57:06;99645.55;;;18.14;83.48
63447;BME280;49577;49.872;6.190;2023-08-24T03:59:31;99632.64;;;18.14;83.76
63447;BME280;49577;49.872;6.190;2023-08-24T04:01:57;99627.45;;;18.16;83.86
63447;BME280;49577;49.872;6.190;2023-08-24T04:04:27;99632.89;;;18.19;83.93
63447;BME280;49577;49.872;6.190;2023-08-24T04:06:52;99628.73;;;18.22;84.02
63447;BME280;49577;49.872;6.190;2023-08-24T04:09:17;99610.30;;;18.24;84.14
63447;BME280;49577;49.872;6.190;2023-08-24T04:11:43;99596.89;;;18.26;84.21
63447;BME280;49577;49.872;6.190;2023-08-24T04:14:08;99619.73;;;18.25;84.44
63447;BME280;49577;49.872;6.190;2023-08-24T04:16:33;99636.39;;;18.25;84.58
63447;BME280;49577;49.872;6.190;2023-08-24T04:18:59;99640.36;;;18.24;84.82
63447;BME280;49577;49.872;6.190;2023-08-24T04:21:24;99631.10;;;18.23;85.10
63447;BME280;49577;49.872;6.190;2023-08-24T04:23:49;99629.31;;;18.23;85.57
63447;BME280;49577;49.872;6.190;2023-08-24T04:26:14;99633.80;;;18.26;85.84
63447;BME280;49577;49.872;6.190;2023-08-24T04:28:40;99641.98;;;18.26;85.65
63447;BME280;49577;49.872;6.190;2023-08-24T04:31:05;99644.59;;;18.26;85.82
63447;BME280;49577;49.872;6.190;2023-08-24T04:33:31;99631.20;;;18.23;85.67
63447;BME280;49577;49.872;6.190;2023-08-24T04:35:57;99628.92;;;18.19;85.64
63447;BME280;49577;49.872;6.190;2023-08-24T04:38:23;99616.98;;;18.19;85.90
63447;BME280;49577;49.872;6.190;2023-08-24T04:40:50;99610.34;;;18.18;85.85
63447;BME280;49577;49.872;6.190;2023-08-24T04:43:16;99595.44;;;18.13;85.94
63447;BME280;49577;49.872;6.190;2023-08-24T04:45:42;99575.41;;;18.06;86.02
63447;BME280;49577;49.872;6.190;2023-08-24T04:48:07;99555.05;;;17.97;86.19
63447;BME280;49577;49.872;6.190;2023-08-24T04:50:32;99548.06;;;17.94;86.38
63447;BME280;49577;49.872;6.190;2023-08-24T04:52:58;99560.06;;;17.94;86.85
63447;BME280;49577;49.872;6.190;2023-08-24T04:55:23;99571.05;;;17.98;87.06
63447;BME280;49577;49.872;6.190;2023-08-24T04:57:48;99582.69;;;18.00;86.78
63447;BME280;49577;49.872;6.190;2023-08-24T05:00:14;99590.55;;;18.01;86.88
63447;BME280;49577;49.872;6.190;2023-08-24T05:02:42;99584.94;;;18.04;87.13
63447;BME280;49577;49.872;6.190;2023-08-24T05:05:08;99583.76;;;18.07;87.40
63447;BME280;49577;49.872;6.190;2023-08-24T05:07:36;99580.67;;;18.10;87.38
63447;BME280;49577;49.872;6.190;2023-08-24T05:10:02;99560.38;;;18.14;87.49
63447;BME280;49577;49.872;6.190;2023-08-24T05:12:28;99542.16;;;18.17;87.54
63447;BME280;49577;49.872;6.190;2023-08-24T05:14:54;99538.77;;;18.21;87.61
63447;BME280;49577;49.872;6.190;2023-08-24T05:17:20;99544.03;;;18.24;87.13
63447;BME280;49577;49.872;6.190;2023-08-24T05:19:46;99560.08;;;18.24;87.36
63447;BME280;49577;49.872;6.190;2023-08-24T05:22:11;99546.98;;;18.26;87.61
63447;BME280;49577;49.872;6.190;2023-08-24T05:24:37;99521.50;;;18.25;86.98
63447;BME280;49577;49.872;6.190;2023-08-24T05:27:02;99515.02;;;18.22;86.33
63447;BME280;49577;49.872;6.190;2023-08-24T05:29:27;99530.02;;;18.24;86.33
63447;BME280;49577;49.872;6.190;2023-08-24T05:31:52;99559.89;;;18.28;86.47
63447;BME280;49577;49.872;6.190;2023-08-24T05:34:18;99609.54;;;18.32;86.81
63447;BME280;49577;49.872;6.190;2023-08-24T05:36:43;99629.65;;;18.34;86.76
63447;BME280;49577;49.872;6.190;2023-08-24T05:39:09;99641.94;;;18.37;86.65
63447;BME280;49577;49.872;6.190;2023-08-24T05:41:36;99641.14;;;18.36;86.31
63447;BME280;49577;49.872;6.190;2023-08-24T05:44:01;99622.68;;;18.35;86.39
63447;BME280;49577;49.872;6.190;2023-08-24T05:46:28;99622.29;;;18.33;86.52
63447;BME280;49577;49.872;6.190;2023-08-24T05:48:53;99606.70;;;18.34;86.74
63447;BME280;49577;49.872;6.190;2023-08-24T05:51:19;99578.08;;;18.35;86.65
63447;BME280;49577;49.872;6.190;2023-08-24T05:53:44;99585.23;;;18.34;86.62
63447;BME280;49577;49.872;6.190;2023-08-24T05:56:09;99590.45;;;18.33;86.66
63447;BME280;49577;49.872;6.190;2023-08-24T05:58:34;99555.45;;;18.32;86.73
63447;BME280;49577;49.872;6.190;2023-08-24T06:01:00;99513.77;;;18.30;86.57
63447;BME280;49577;49.872;6.190;2023-08-24T06:03:25;99464.07;;;18.26;86.65
63447;BME280;49577;49.872;6.190;2023-08-24T06:05:51;99432.27;;;18.22;86.76
63447;BME280;49577;49.872;6.190;2023-08-24T06:08:17;99417.43;;;18.17;87.28
63447;BME280;49577;49.872;6.190;2023-08-24T06:10:42;99415.80;;;18.10;88.07
63447;BME280;49577;49.872;6.190;2023-08-24T06:13:07;99422.48;;;18.03;88.63
63447;BME280;49577;49.872;6.190;2023-08-24T06:15:33;99412.31;;;18.00;88.93
63447;BME280;49577;49.872;6.190;2023-08-24T06:17:58;99396.85;;;17.99;88.07
63447;BME280;49577;49.872;6.190;2023-08-24T06:20:25;99388.59;;;18.01;87.91
63447;BME280;49577;49.872;6.190;2023-08-24T06:22:50;99381.52;;;18.03;88.12
63447;BME280;49577;49.872;6.190;2023-08-24T06:25:15;99382.11;;;18.04;88.76
63447;BME280;49577;49.872;6.190;2023-08-24T06:27:41;99380.42;;;18.08;89.28
63447;BME280;49577;49.872;6.190;2023-08-24T06:30:06;99383.84;;;18.13;89.16
63447;BME280;49577;49.872;6.190;2023-08-24T06:32:32;99379.19;;;18.17;89.27
63447;BME280;49577;49.872;6.190;2023-08-24T06:34:57;99377.30;;;18.15;89.33
63447;BME280;49577;49.872;6.190;2023-08-24T06:37:22;99375.11;;;18.21;89.54
63447;BME280;49577;49.872;6.190;2023-08-24T06:39:48;99363.78;;;18.28;89.47
63447;BME280;49577;49.872;6.190;2023-08-24T06:42:13;99369.80;;;18.39;89.77
63447;BME280;49577;49.872;6.190;2023-08-24T06:44:38;99375.20;;;18.52;90.03
63447;BME280;49577;49.872;6.190;2023-08-24T06:47:04;99381.41;;;18.68;89.88
63447;BME280;49577;49.872;6.190;2023-08-24T06:49:29;99375.61;;;18.99;89.84
63447;BME280;49577;49.872;6.190;2023-08-24T06:51:54;99372.31;;;19.28;89.00
63447;BME280;49577;49.872;6.190;2023-08-24T06:54:20;99376.10;;;19.41;87.83
63447;BME280;49577;49.872;6.190;2023-08-24T06:56:45;99376.98;;;19.82;88.09
63447;BME280;49577;49.872;6.190;2023-08-24T06:59:10;99385.82;;;21.01;86.77
63447;BME280;49577;49.872;6.190;2023-08-24T07:01:38;99388.16;;;21.88;83.47
63447;BME280;49577;49.872;6.190;2023-08-24T07:04:03;99387.73;;;22.33;80.60
63447;BME280;49577;49.872;6.190;2023-08-24T07:06:29;99390.02;;;22.82;78.86
63447;BME280;49577;49.872;6.190;2023-08-24T07:08:54;99390.80;;;23.50;76.63
63447;BME280;49577;49.872;6.190;2023-08-24T07:11:19;99391.79;;;24.35;74.54
63447;BME280;49577;49.872;6.190;2023-08-24T07:13:45;99390.77;;;24.67;73.11
63447;BME280;49577;49.872;6.190;2023-08-24T07:16:11;99382.22;;;24.79;71.49
63447;BME280;49577;49.872;6.190;2023-08-24T07:18:36;99385.48;;;25.64;70.22
63447;BME280;49577;49.872;6.190;2023-08-24T07:21:02;99384.02;;;26.72;67.03
63447;BME280;49577;49.872;6.190;2023-08-24T07:23:27;99385.04;;;27.40;63.69
63447;BME280;49577;49.872;6.190;2023-08-24T07:25:53;99375.69;;;28.16;60.84
63447;BME280;49577;49.872;6.190;2023-08-24T07:28:19;99366.48;;;28.37;58.39
63447;BME280;49577;49.872;6.190;2023-08-24T07:30:44;99363.18;;;28.55;56.87
63447;BME280;49577;49.872;6.190;2023-08-24T07:33:10;99360.55;;;28.90;55.87
63447;BME280;49577;49.872;6.190;2023-08-24T07:35:36;99356.52;;;28.84;55.13
63447;BME280;49577;49.872;6.190;2023-08-24T07:38:01;99354.83;;;28.32;55.25
63447;BME280;49577;49.872;6.190;2023-08-24T07:40:28;99348.80;;;28.32;55.60
63447;BME280;49577;49.872;6.190;2023-08-24T07:42:54;99348.66;;;29.11;54.15
63447;BME280;49577;49.872;6.190;2023-08-24T07:45:21;99352.77;;;29.88;52.28
63447;BME280;49577;49.872;6.190;2023-08-24T07:47:48;99356.07;;;30.60;50.73
63447;BME280;49577;49.872;6.190;2023-08-24T07:50:14;99360.33;;;31.25;48.35
63447;BME280;49577;49.872;6.190;2023-08-24T07:52:40;99358.20;;;31.83;46.89
63447;BME280;49577;49.872;6.190;2023-08-24T07:55:08;99358.88;;;32.40;45.33
63447;BME280;49577;49.872;6.190;2023-08-24T07:57:35;99357.27;;;32.80;43.53
63447;BME280;49577;49.872;6.190;2023-08-24T08:00:02;99354.78;;;33.15;40.90
63447;BME280;49577;49.872;6.190;2023-08-24T08:02:27;99346.65;;;33.59;39.59
63447;BME280;49577;49.872;6.190;2023-08-24T08:04:57;99349.90;;;34.08;38.29
63447;BME280;49577;49.872;6.190;2023-08-24T08:07:28;99351.95;;;34.45;37.86
63447;BME280;49577;49.872;6.190;2023-08-24T08:09:53;99351.89;;;34.50;37.46
63447;BME280;49577;49.872;6.190;2023-08-24T08:12:19;99350.52;;;34.05;37.64
63447;BME280;49577;49.872;6.190;2023-08-24T08:14:44;99347.78;;;34.08;37.31
63447;BME280;49577;49.872;6.190;2023-08-24T08:17:10;99346.19;;;34.50;36.52
63447;BME280;49577;49.872;6.190;2023-08-24T08:19:35;99338.61;;;34.73;35.75
63447;BME280;49577;49.872;6.190;2023-08-24T08:22:03;99335.32;;;34.86;35.45
63447;BME280;49577;49.872;6.190;2023-08-24T08:24:28;99336.96;;;34.88;35.28
63447;BME280;49577;49.872;6.190;2023-08-24T08:26:53;99335.41;;;34.84;36.00
63447;BME280;49577;49.872;6.190;2023-08-24T08:29:19;99336.83;;;34.76;35.52
63447;BME280;49577;49.872;6.190;2023-08-24T08:31:45;99339.45;;;34.69;35.37
63447;BME280;49577;49.872;6.190;2023-08-24T08:34:11;99337.66;;;34.70;35.06
63447;BME280;49577;49.872;6.190;2023-08-24T08:36:36;99338.27;;;34.80;34.94
63447;BME280;49577;49.872;6.190;2023-08-24T08:39:01;99340.55;;;34.79;34.80
63447;BME280;49577;49.872;6.190;2023-08-24T08:41:33;99337.48;;;34.69;34.90
63447;BME280;49577;49.872;6.190;2023-08-24T08:44:04;99332.84;;;34.67;34.90
63447;BME280;49577;49.872;6.190;2023-08-24T08:46:30;99321.52;;;34.96;34.05
63447;BME280;49577;49.872;6.190;2023-08-24T08:48:56;99327.15;;;35.26;33.50
63447;BME280;49577;49.872;6.190;2023-08-24T08:51:23;99321.53;;;35.45;32.94
63447;BME280;49577;49.872;6.190;2023-08-24T08:53:49;99319.52;;;35.37;32.94
63447;BME280;49577;49.872;6.190;2023-08-24T08:56:14;99314.51;;;35.23;33.12
63447;BME280;49577;49.872;6.190;2023-08-24T08:58:40;99302.23;;;35.01;33.09
63447;BME280;49577;49.872;6.190;2023-08-24T09:01:08;99294.41;;;34.95;33.00
63447;BME280;49577;49.872;6.190;2023-08-24T09:03:34;99289.58;;;34.83;33.09
63447;BME280;49577;49.872;6.190;2023-08-24T09:05:59;99287.61;;;34.46;33.41
63447;BME280;49577;49.872;6.190;2023-08-24T09:08:29;99283.51;;;34.16;34.15
63447;BME280;49577;49.872;6.190;2023-08-24T09:10:54;99276.19;;;33.97;34.44
63447;BME280;49577;49.872;6.190;2023-08-24T09:13:20;99279.32;;;33.76;34.72
63447;BME280;49577;49.872;6.190;2023-08-24T09:15:46;99280.84;;;33.48;35.33
63447;BME280;49577;49.872;6.190;2023-08-24T09:18:11;99281.33;;;33.26;35.54
63447;BME280;49577;49.872;6.190;2023-08-24T09:20:37;99292.27;;;33.04;36.71
63447;BME280;49577;49.872;6.190;2023-08-24T09:23:03;99306.41;;;32.85;38.42
63447;BME280;49577;49.872;6.190;2023-08-24T09:25:28;99305.88;;;32.55;37.23
63447;BME280;49577;49.872;6.190;2023-08-24T09:28:03;99299.77;;;32.25;37.53
63447;BME280;49577;49.872;6.190;2023-08-24T09:30:35;99290.88;;;31.97;38.76
63447;BME280;49577;49.872;6.190;2023-08-24T09:33:02;99287.27;;;31.64;39.98
63447;BME280;49577;49.872;6.190;2023-08-24T09:35:27;99285.13;;;31.32;40.48
63447;BME280;49577;49.872;6.190;2023-08-24T09:37:53;99285.25;;;31.03;41.04
63447;BME280;49577;49.872;6.190;2023-08-24T09:40:23;99285.70;;;30.80;41.42
63447;BME280;49577;49.872;6.190;2023-08-24T09:42:49;99285.98;;;30.59;41.82
63447;BME280;49577;49.872;6.190;2023-08-24T09:45:14;99277.92;;;30.37;42.22
63447;BME280;49577;49.872;6.190;2023-08-24T09:47:45;99276.00;;;30.17;44.08
63447;BME280;49577;49.872;6.190;2023-08-24T09:50:10;99273.92;;;30.05;44.42
63447;BME280;49577;49.872;6.190;2023-08-24T09:52:37;99275.27;;;29.88;44.30
63447;BME280;49577;49.872;6.190;2023-08-24T09:55:06;99280.65;;;29.73;44.90
63447;BME280;49577;49.872;6.190;2023-08-24T09:57:38;99283.52;;;29.55;46.29
63447;BME280;49577;49.872;6.190;2023-08-24T10:00:08;99275.70;;;29.34;46.40
63447;BME280;49577;49.872;6.190;2023-08-24T10:02:49;99267.13;;;29.08;46.62
63447;BME280;49577;49.872;6.190;2023-08-24T10:05:17;99272.65;;;28.81;47.30
63447;BME280;49577;49.872;6.190;2023-08-24T10:07:51;99276.39;;;28.58;47.66
63447;BME280;49577;49.872;6.190;2023-08-24T10:10:18;99284.02;;;28.34;48.18
63447;BME280;49577;49.872;6.190;2023-08-24T10:12:49;99291.71;;;28.18;49.04
63447;BME280;49577;49.872;6.190;2023-08-24T10:15:17;99295.20;;;28.07;50.37
63447;BME280;49577;49.872;6.190;2023-08-24T10:17:44;99294.78;;;27.90;51.33
63447;BME280;49577;49.872;6.190;2023-08-24T10:20:10;99292.68;;;27.71;52.23
63447;BME280;49577;49.872;6.190;2023-08-24T10:22:37;99296.92;;;27.50;53.31
63447;BME280;49577;49.872;6.190;2023-08-24T10:25:05;99290.85;;;27.27;54.35
63447;BME280;49577;49.872;6.190;2023-08-24T10:27:32;99281.42;;;27.06;54.83
63447;BME280;49577;49.872;6.190;2023-08-24T10:29:57;99277.72;;;26.85;55.19
63447;BME280;49577;49.872;6.190;2023-08-24T10:32:24;99279.38;;;26.68;55.86
63447;BME280;49577;49.872;6.190;2023-08-24T10:34:51;99281.77;;;26.53;57.00
63447;BME280;49577;49.872;6.190;2023-08-24T10:37:16;99283.86;;;26.43;57.67
63447;BME280;49577;49.872;6.190;2023-08-24T10:39:46;99291.29;;;26.31;57.99
63447;BME280;49577;49.872;6.190;2023-08-24T10:42:12;99296.20;;;26.21;58.31
63447;BME280;49577;49.872;6.190;2023-08-24T10:44:39;99296.05;;;26.13;58.79
63447;BME280;49577;49.872;6.190;2023-08-24T10:49:33;99286.34;;;25.85;59.75
63447;BME280;49577;49.872;6.190;2023-08-24T10:52:16;99280.66;;;25.63;60.30
63447;BME280;49577;49.872;6.190;2023-08-24T10:54:43;99274.34;;;25.39;60.80
63447;BME280;49577;49.872;6.190;2023-08-24T10:57:17;99273.56;;;25.21;61.62
63447;BME280;49577;49.872;6.190;2023-08-24T10:59:44;99257.64;;;25.08;62.61
63447;BME280;49577;49.872;6.190;2023-08-24T11:02:18;99243.30;;;24.91;63.25
63447;BME280;49577;49.872;6.190;2023-08-24T11:05:03;99238.02;;;24.75;63.35
63447;BME280;49577;49.872;6.190;2023-08-24T11:07:29;99226.93;;;24.57;63.88
63447;BME280;49577;49.872;6.190;2023-08-24T11:09:54;99219.67;;;24.40;64.69
63447;BME280;49577;49.872;6.190;2023-08-24T11:12:20;99234.30;;;24.27;65.78
63447;BME280;49577;49.872;6.190;2023-08-24T11:14:49;99256.95;;;24.17;66.21
63447;BME280;49577;49.872;6.190;2023-08-24T11:17:29;99276.02;;;24.09;66.30
63447;BME280;49577;49.872;6.190;2023-08-24T11:19:57;99286.06;;;23.99;66.64
63447;BME280;49577;49.872;6.190;2023-08-24T11:22:23;99304.25;;;23.86;67.49
63447;BME280;49577;49.872;6.190;2023-08-24T11:24:50;99374.67;;;23.73;67.52
63447;BME280;49577;49.872;6.190;2023-08-24T11:27:15;99523.76;;;23.51;66.62
63447;BME280;49577;49.872;6.190;2023-08-24T11:29:41;99560.71;;;23.33;66.32
63447;BME280;49577;49.872;6.190;2023-08-24T11:32:07;99517.52;;;23.16;66.02
63447;BME280;49577;49.872;6.190;2023-08-24T11:34:33;99446.83;;;23.06;66.09
63447;BME280;49577;49.872;6.190;2023-08-24T11:36:59;99421.88;;;22.95;66.70
63447;BME280;49577;49.872;6.190;2023-08-24T11:39:25;99461.67;;;22.84;66.99
63447;BME280;49577;49.872;6.190;2023-08-24T11:42:03;99456.69;;;22.71;67.12
63447;BME280;49577;49.872;6.190;2023-08-24T11:44:32;99447.80;;;22.59;67.70
63447;BME280;49577;49.872;6.190;2023-08-24T11:47:09;99489.11;;;22.48;68.49
63447;BME280;49577;49.872;6.190;2023-08-24T11:49:35;99484.81;;;22.37;68.54
63447;BME280;49577;49.872;6.190;2023-08-24T11:52:00;99468.08;;;22.30;68.77
63447;BME280;49577;49.872;6.190;2023-08-24T11:54:25;99455.48;;;22.23;68.64
63447;BME280;49577;49.872;6.190;2023-08-24T11:56:51;99438.80;;;22.15;68.75
63447;BME280;49577;49.872;6.190;2023-08-24T11:59:17;99422.59;;;22.04;68.88
63447;BME280;49577;49.872;6.190;2023-08-24T12:01:45;99424.02;;;21.98;69.04
63447;BME280;49577;49.872;6.190;2023-08-24T12:04:11;99434.61;;;21.92;69.17
63447;BME280;49577;49.872;6.190;2023-08-24T12:06:37;99444.13;;;21.88;69.79
63447;BME280;49577;49.872;6.190;2023-08-24T12:09:05;99452.65;;;21.85;69.73
63447;BME280;49577;49.872;6.190;2023-08-24T12:11:35;99441.86;;;21.81;69.72
63447;BME280;49577;49.872;6.190;2023-08-24T12:14:00;99405.92;;;21.80;69.84
63447;BME280;49577;49.872;6.190;2023-08-24T12:16:26;99370.07;;;21.78;69.61
63447;BME280;49577;49.872;6.190;2023-08-24T12:18:56;99334.44;;;21.79;69.70
63447;BME280;49577;49.872;6.190;2023-08-24T12:21:24;99301.52;;;21.76;70.79
63447;BME280;49577;49.872;6.190;2023-08-24T12:24:00;99292.34;;;21.67;70.18
63447;BME280;49577;49.872;6.190;2023-08-24T12:26:27;99291.45;;;21.68;70.62
63447;BME280;49577;49.872;6.190;2023-08-24T12:28:54;99278.91;;;21.78;71.69
63447;BME280;49577;49.872;6.190;2023-08-24T12:31:20;99276.12;;;21.86;71.97
63447;BME280;49577;49.872;6.190;2023-08-24T12:33:56;99269.16;;;21.94;72.51
63447;BME280;49577;49.872;6.190;2023-08-24T12:36:23;99250.94;;;22.03;72.90
63447;BME280;49577;49.872;6.190;2023-08-24T12:38:48;99237.77;;;22.15;73.05
63447;BME280;49577;49.872;6.190;2023-08-24T12:41:13;99232.70;;;22.24;72.97
63447;BME280;49577;49.872;6.190;2023-08-24T12:43:38;99219.95;;;22.28;72.73
63447;BME280;49577;49.872;6.190;2023-08-24T12:46:04;99211.92;;;22.26;72.73
63447;BME280;49577;49.872;6.190;2023-08-24T12:48:29;99211.06;;;22.29;72.77
63447;BME280;49577;49.872;6.190;2023-08-24T12:50:54;99205.88;;;22.31;72.62
63447;BME280;49577;49.872;6.190;2023-08-24T12:53:19;99194.92;;;22.29;72.25
63447;BME280;49577;49.872;6.190;2023-08-24T12:55:45;99179.22;;;22.22;71.50
63447;BME280;49577;49.872;6.190;2023-08-24T12:58:11;99169.08;;;22.22;71.74
63447;BME280;49577;49.872;6.190;2023-08-24T13:00:36;99165.25;;;22.21;71.57
63447;BME280;49577;49.872;6.190;2023-08-24T13:03:01;99161.17;;;22.19;71.76
63447;BME280;49577;49.872;6.190;2023-08-24T13:05:27;99160.80;;;22.22;72.22